createdAt,value
2023-05-22T00:01:00.438Z,225.5
2023-05-22T00:02:03.717Z,235.74
2023-05-22T00:03:07.063Z,243.42
2023-05-22T00:04:10.304Z,243.42
2023-05-22T00:05:13.601Z,263.9
2023-05-22T00:06:16.883Z,269.02
2023-05-22T00:07:20.200Z,225.5
2023-05-22T00:08:23.462Z,228.06
2023-05-22T00:09:26.766Z,243.42
2023-05-22T00:10:30.079Z,258.78
2023-05-22T00:11:33.346Z,253.66
2023-05-22T00:12:36.683Z,279.26
2023-05-22T00:13:38.944Z,292.06
2023-05-22T00:14:42.232Z,294.62
2023-05-22T00:15:45.518Z,289.5
2023-05-22T00:16:48.820Z,317.66
2023-05-22T00:17:52.110Z,325.34
2023-05-22T00:18:55.391Z,-327.46
2023-05-22T00:19:58.688Z,325.34
2023-05-22T00:21:01.995Z,-306.98
2023-05-22T00:22:05.282Z,-306.98
2023-05-22T00:23:08.623Z,-294.18
2023-05-22T00:24:11.901Z,-291.62
2023-05-22T00:25:15.169Z,-278.82
2023-05-22T00:26:18.472Z,-296.74
2023-05-22T00:27:20.770Z,-296.74
2023-05-22T00:28:24.072Z,-306.98
2023-05-22T00:29:27.358Z,-314.66
2023-05-22T00:30:30.651Z,-314.66
2023-05-22T00:31:33.930Z,-319.78
2023-05-22T00:32:37.233Z,-306.98
2023-05-22T00:33:40.521Z,-317.22
2023-05-22T00:34:43.811Z,-294.18
2023-05-22T00:35:47.258Z,-304.42
2023-05-22T00:36:50.399Z,-309.54
2023-05-22T00:37:53.691Z,-286.5
2023-05-22T00:38:57.010Z,-294.18
2023-05-22T00:40:00.275Z,-281.38
2023-05-22T00:41:02.603Z,-291.62
2023-05-22T00:42:05.879Z,-266.02
2023-05-22T00:43:09.168Z,-248.1
2023-05-22T00:45:15.759Z,-263.46
2023-05-22T00:46:19.044Z,-296.74
2023-05-22T00:47:22.369Z,-263.46
2023-05-22T00:48:25.636Z,-225.06
2023-05-22T00:49:28.942Z,-227.62
2023-05-22T00:50:32.232Z,-209.7
2023-05-22T00:51:35.547Z,-207.14
2023-05-22T00:52:38.785Z,-214.82
2023-05-22T00:53:42.074Z,-214.82
2023-05-22T00:54:44.382Z,-227.62
2023-05-22T00:55:47.694Z,-204.58
2023-05-22T00:56:51.000Z,-181.54
2023-05-22T00:57:54.289Z,-217.38
2023-05-22T00:58:57.568Z,-209.7
2023-05-22T01:00:00.872Z,-199.46
2023-05-22T01:01:04.140Z,-196.9
2023-05-22T01:02:07.434Z,-184.1
2023-05-22T01:03:10.750Z,-186.66
2023-05-22T01:04:14.037Z,-207.14
2023-05-22T01:05:17.314Z,-212.26
2023-05-22T01:06:20.598Z,-237.86
2023-05-22T01:07:23.894Z,-263.46
2023-05-22T01:08:26.207Z,-253.22
2023-05-22T01:09:29.502Z,-258.34
2023-05-22T01:10:32.790Z,-273.7
2023-05-22T01:11:36.083Z,-245.54
2023-05-22T01:12:39.365Z,-242.98
2023-05-22T01:13:42.650Z,-273.7
2023-05-22T01:14:45.960Z,-248.1
2023-05-22T01:15:49.251Z,-268.58
2023-05-22T01:16:52.539Z,-268.58
2023-05-22T01:17:55.861Z,-260.9
2023-05-22T01:18:59.119Z,-235.3
2023-05-22T01:20:02.423Z,-235.3
2023-05-22T01:21:05.695Z,-283.94
2023-05-22T01:22:08.004Z,-258.34
2023-05-22T01:23:11.350Z,-222.5
2023-05-22T01:24:14.592Z,-225.06
2023-05-22T01:25:17.895Z,-219.94
2023-05-22T01:26:21.178Z,-212.26
2023-05-22T01:27:24.467Z,-130.34
2023-05-22T01:28:27.781Z,-76.58
2023-05-22T01:29:31.059Z,-91.94
2023-05-22T01:30:34.336Z,-97.06
2023-05-22T01:31:37.681Z,0
2023-05-22T01:32:40.941Z,-104.74
2023-05-22T01:33:44.213Z,-132.9
2023-05-22T01:34:47.521Z,0
2023-05-22T01:35:49.833Z,-155.94
2023-05-22T01:36:53.120Z,0
2023-05-22T01:37:56.400Z,-91.94
2023-05-22T01:38:59.716Z,-161.06
2023-05-22T01:40:03.003Z,-45.86
2023-05-22T01:41:06.295Z,0
2023-05-22T01:42:09.609Z,-97.06
2023-05-22T01:43:12.874Z,-61.22
2023-05-22T01:44:16.165Z,-120.1
2023-05-22T01:45:19.451Z,-140.58
2023-05-22T01:46:22.775Z,-22.82
2023-05-22T01:47:26.051Z,18.15
2023-05-22T01:48:29.360Z,-4.9
2023-05-22T01:49:31.646Z,-40.74
2023-05-22T01:50:34.964Z,-74.02
2023-05-22T01:51:38.220Z,-53.54
2023-05-22T01:52:41.527Z,-35.62
2023-05-22T01:53:44.814Z,-58.66
2023-05-22T01:54:48.125Z,-45.86
2023-05-22T01:55:51.402Z,-84.26
2023-05-22T01:56:54.697Z,-74.02
2023-05-22T01:57:57.997Z,23.27
2023-05-22T01:59:01.293Z,48.87
2023-05-22T02:00:04.560Z,7.91
2023-05-22T02:01:07.922Z,-22.82
2023-05-22T02:02:11.151Z,-27.94
2023-05-22T02:03:13.485Z,-48.42
2023-05-22T02:04:16.742Z,-56.1
2023-05-22T02:05:20.050Z,-79.14
2023-05-22T02:06:23.332Z,-97.06
2023-05-22T02:07:26.638Z,-50.98
2023-05-22T02:08:29.968Z,-30.5
2023-05-22T02:09:33.211Z,-15.14
2023-05-22T02:10:36.508Z,-20.26
2023-05-22T02:11:39.792Z,-53.54
2023-05-22T02:12:43.090Z,-61.22
2023-05-22T02:13:46.409Z,-48.42
2023-05-22T02:14:49.677Z,-50.98
2023-05-22T02:15:52.961Z,-30.5
2023-05-22T02:16:55.272Z,-45.86
2023-05-22T02:17:58.568Z,-45.86
2023-05-22T02:19:01.861Z,-20.26
2023-05-22T02:20:05.155Z,-10.02
2023-05-22T02:21:08.739Z,-79.14
2023-05-22T02:22:12.025Z,-97.06
2023-05-22T02:23:15.323Z,-112.42
2023-05-22T02:24:18.618Z,-114.98
2023-05-22T02:25:21.913Z,-130.34
2023-05-22T02:26:25.195Z,-138.02
2023-05-22T02:27:28.495Z,-145.7
2023-05-22T02:28:31.796Z,-99.62
2023-05-22T02:29:35.084Z,-120.1
2023-05-22T02:30:37.425Z,-68.9
2023-05-22T02:31:40.675Z,-63.78
2023-05-22T02:32:43.985Z,-89.38
2023-05-22T02:33:47.261Z,-76.58
2023-05-22T02:34:50.588Z,-76.58
2023-05-22T02:35:53.853Z,-104.74
2023-05-22T02:36:56.148Z,-66.34
2023-05-22T02:37:59.455Z,-81.7
2023-05-22T02:39:02.859Z,-76.58
2023-05-22T02:40:06.166Z,-79.14
2023-05-22T02:41:09.441Z,-97.06
2023-05-22T02:42:12.769Z,-122.66
2023-05-22T02:43:16.013Z,-61.22
2023-05-22T02:44:19.306Z,-40.74
2023-05-22T02:45:22.617Z,-43.3
2023-05-22T02:46:25.898Z,-25.38
2023-05-22T02:47:29.201Z,18.15
2023-05-22T02:48:32.479Z,20.71
2023-05-22T02:49:35.772Z,18.15
2023-05-22T02:50:38.074Z,13.03
2023-05-22T02:51:41.372Z,2.79
2023-05-22T02:52:44.667Z,0.23
2023-05-22T02:53:47.939Z,13.03
2023-05-22T02:54:51.246Z,15.59
2023-05-22T02:55:54.539Z,28.39
2023-05-22T02:56:57.829Z,30.95
2023-05-22T02:58:01.119Z,13.03
2023-05-22T02:59:04.418Z,2.79
2023-05-22T03:00:07.706Z,-7.46
2023-05-22T03:01:11.007Z,-2.34
2023-05-22T03:02:14.277Z,5.35
2023-05-22T03:03:17.613Z,-17.7
2023-05-22T03:04:19.898Z,-145.7
2023-05-22T03:05:23.168Z,-120.1
2023-05-22T03:06:26.472Z,-74.02
2023-05-22T03:07:29.762Z,-84.26
2023-05-22T03:08:33.049Z,25.83
2023-05-22T03:09:36.348Z,0
2023-05-22T03:10:39.638Z,0
2023-05-22T03:11:42.943Z,77.03
2023-05-22T03:12:46.223Z,69.35
2023-05-22T03:13:49.527Z,53.99
2023-05-22T03:14:52.814Z,-30.5
2023-05-22T03:15:56.111Z,36.07
2023-05-22T03:16:59.411Z,-45.86
2023-05-22T03:18:03.082Z,-143.14
2023-05-22T03:19:05.405Z,-150.82
2023-05-22T03:20:09.079Z,-135.46
2023-05-22T03:21:12.378Z,-199.46
2023-05-22T03:22:15.645Z,-222.5
2023-05-22T03:23:18.954Z,-191.78
2023-05-22T03:24:22.232Z,-196.9
2023-05-22T03:25:25.535Z,-214.82
2023-05-22T03:26:28.819Z,-196.9
2023-05-22T03:27:32.118Z,-155.94
2023-05-22T03:28:35.504Z,-184.1
2023-05-22T03:29:38.707Z,-212.26
2023-05-22T03:30:42.004Z,-237.86
2023-05-22T03:31:45.325Z,-135.46
2023-05-22T03:32:47.598Z,-202.02
2023-05-22T03:33:50.889Z,-258.34
2023-05-22T03:34:54.189Z,-140.58
2023-05-22T03:35:57.462Z,-15.14
2023-05-22T03:37:00.770Z,-94.5
2023-05-22T03:38:04.054Z,-168.74
2023-05-22T03:39:07.356Z,-268.58
2023-05-22T03:40:10.650Z,-289.06
2023-05-22T03:41:13.937Z,-237.86
2023-05-22T03:42:17.220Z,-283.94
2023-05-22T03:43:20.532Z,-306.98
2023-05-22T03:44:23.814Z,-314.66
2023-05-22T03:45:27.115Z,-294.18
2023-05-22T03:46:29.419Z,-317.22
2023-05-22T03:47:32.704Z,322.78
2023-05-22T03:48:35.979Z,312.54
2023-05-22T03:49:39.286Z,312.54
2023-05-22T03:50:42.606Z,297.18
2023-05-22T03:51:45.878Z,294.62
2023-05-22T03:52:49.171Z,294.62
2023-05-22T03:53:52.461Z,289.5
2023-05-22T03:54:55.759Z,274.14
2023-05-22T03:55:59.035Z,256.22
2023-05-22T03:57:02.321Z,217.82
2023-05-22T03:58:05.612Z,261.34
2023-05-22T03:59:08.909Z,258.78
2023-05-22T04:00:11.230Z,235.74
2023-05-22T04:01:14.506Z,217.82
2023-05-22T04:02:17.786Z,197.34
2023-05-22T04:03:21.094Z,192.22
2023-05-22T04:04:24.376Z,192.22
2023-05-22T04:05:27.680Z,187.1
2023-05-22T04:06:30.970Z,176.86
2023-05-22T04:07:34.256Z,179.42
2023-05-22T04:08:37.547Z,174.3
2023-05-22T04:09:40.848Z,164.06
2023-05-22T04:10:44.156Z,151.26
2023-05-22T04:11:47.425Z,151.26
2023-05-22T04:12:50.709Z,146.14
2023-05-22T04:13:53.021Z,138.46
2023-05-22T04:14:56.386Z,128.22
2023-05-22T04:15:59.594Z,125.66
2023-05-22T04:17:02.908Z,120.54
2023-05-22T04:18:06.515Z,115.42
2023-05-22T04:19:09.789Z,115.42
2023-05-22T04:20:13.109Z,115.42
2023-05-22T04:21:16.443Z,100.06
2023-05-22T04:22:19.668Z,107.74
2023-05-22T04:23:22.965Z,110.3
2023-05-22T04:24:26.278Z,102.62
2023-05-22T04:25:29.541Z,110.3
2023-05-22T04:26:32.836Z,110.3
2023-05-22T04:27:35.145Z,107.74
2023-05-22T04:28:38.460Z,105.18
2023-05-22T04:29:41.727Z,107.74
2023-05-22T04:30:45.038Z,105.18
2023-05-22T04:31:48.304Z,110.3
2023-05-22T04:32:51.628Z,107.74
2023-05-22T04:33:54.887Z,102.62
2023-05-22T04:34:58.252Z,105.18
2023-05-22T04:36:01.482Z,92.38
2023-05-22T04:37:04.779Z,97.5
2023-05-22T04:38:08.060Z,82.14
2023-05-22T04:39:11.358Z,74.46
2023-05-22T04:40:14.649Z,69.34
2023-05-22T04:41:16.960Z,61.66
2023-05-22T04:42:20.262Z,64.22
2023-05-22T04:43:23.552Z,56.54
2023-05-22T04:44:26.839Z,46.3
2023-05-22T04:45:30.136Z,43.74
2023-05-22T04:46:33.453Z,43.74
2023-05-22T04:47:36.729Z,30.94
2023-05-22T04:48:39.999Z,25.82
2023-05-22T04:49:43.295Z,30.94
2023-05-22T04:50:46.595Z,28.38
2023-05-22T04:51:49.891Z,25.82
2023-05-22T04:52:53.173Z,43.74
2023-05-22T04:53:56.469Z,30.94
2023-05-22T04:54:58.778Z,23.26
2023-05-22T04:56:02.069Z,25.82
2023-05-22T04:57:05.383Z,20.7
2023-05-22T04:58:08.706Z,13.02
2023-05-22T04:59:11.932Z,15.58
2023-05-22T05:00:15.237Z,10.46
2023-05-22T05:01:18.540Z,13.02
2023-05-22T05:02:21.833Z,10.46
2023-05-22T05:03:25.122Z,10.46
2023-05-22T05:04:28.429Z,5.34
2023-05-22T05:05:31.693Z,10.46
2023-05-22T05:06:35.033Z,13.02
2023-05-22T05:07:38.284Z,10.46
2023-05-22T05:08:40.616Z,13.02
2023-05-22T05:09:43.895Z,10.46
2023-05-22T05:10:47.184Z,15.58
2023-05-22T05:11:50.469Z,5.34
2023-05-22T05:12:53.777Z,-2.35
2023-05-22T05:13:57.050Z,0.22
2023-05-22T05:15:00.324Z,0.22
2023-05-22T05:16:03.935Z,0.22
2023-05-22T05:17:07.192Z,5.34
2023-05-22T05:18:10.459Z,7.9
2023-05-22T05:19:13.765Z,-2.35
2023-05-22T05:20:17.083Z,0.22
2023-05-22T05:21:20.347Z,0.22
2023-05-22T05:22:22.647Z,-2.35
2023-05-22T05:23:25.943Z,2.78
2023-05-22T05:24:29.252Z,-4.91
2023-05-22T05:25:32.525Z,-7.47
2023-05-22T05:26:35.820Z,-4.91
2023-05-22T05:27:39.119Z,-4.91
2023-05-22T05:28:42.415Z,-7.47
2023-05-22T05:29:45.696Z,-12.59
2023-05-22T05:30:49.017Z,-10.03
2023-05-22T05:31:52.287Z,-15.15
2023-05-22T05:33:58.875Z,-17.71
2023-05-22T05:35:02.260Z,-20.27
2023-05-22T05:36:04.470Z,-17.71
2023-05-22T05:37:07.841Z,-27.95
2023-05-22T05:39:14.336Z,-27.95
2023-05-22T05:40:17.641Z,-30.51
2023-05-22T05:41:20.934Z,-30.51
2023-05-22T05:42:24.232Z,-30.51
2023-05-22T05:43:27.638Z,-33.07
2023-05-22T05:44:30.887Z,-33.07
2023-05-22T05:45:34.091Z,-30.51
2023-05-22T05:46:37.394Z,-33.07
2023-05-22T05:47:40.677Z,-27.95
2023-05-22T05:48:43.966Z,-35.63
2023-05-22T05:49:46.267Z,-22.83
2023-05-22T05:50:49.602Z,-22.83
2023-05-22T05:51:52.873Z,-27.95
2023-05-22T05:52:56.175Z,-22.83
2023-05-22T05:53:59.439Z,-22.83
2023-05-22T05:55:02.748Z,-27.95
2023-05-22T05:56:06.027Z,-17.71
2023-05-22T05:57:09.325Z,-22.83
2023-05-22T05:58:12.601Z,-27.95
2023-05-22T05:59:15.905Z,-33.07
2023-05-22T06:00:19.252Z,-30.51
2023-05-22T06:01:22.544Z,-30.51
2023-05-22T06:02:25.771Z,-30.51
2023-05-22T06:03:28.091Z,-30.51
2023-05-22T06:04:31.542Z,-27.95
2023-05-22T06:05:34.719Z,-38.19
2023-05-22T06:06:37.985Z,-35.63
2023-05-22T06:07:41.288Z,-40.75
2023-05-22T06:08:43.589Z,-48.43
2023-05-22T06:09:46.931Z,-45.87
2023-05-22T06:10:50.186Z,-50.99
2023-05-22T06:11:53.475Z,-40.75
2023-05-22T06:12:56.790Z,-56.11
2023-05-22T06:14:00.030Z,-53.55
2023-05-22T06:15:03.315Z,-58.67
2023-05-22T06:16:06.619Z,-155.95
2023-05-22T06:17:10.294Z,-45.87
2023-05-22T06:18:13.549Z,-38.19
2023-05-22T06:19:16.839Z,5.34
2023-05-22T06:21:23.434Z,41.18
2023-05-22T06:22:25.732Z,74.46
2023-05-22T06:23:29.078Z,97.5
2023-05-22T06:24:32.323Z,97.5
2023-05-22T06:25:35.611Z,84.7
2023-05-22T06:26:38.937Z,141.02
2023-05-22T06:27:42.184Z,107.74
2023-05-22T06:28:45.484Z,92.38
2023-05-22T06:29:48.765Z,79.58
2023-05-22T06:30:52.084Z,89.82
2023-05-22T06:31:55.364Z,92.38
2023-05-22T06:32:58.647Z,82.14
2023-05-22T06:34:01.944Z,87.26
2023-05-22T06:35:05.220Z,82.14
2023-05-22T06:36:07.541Z,100.06
2023-05-22T06:37:10.847Z,92.38
2023-05-22T06:38:14.271Z,94.94
2023-05-22T06:39:17.595Z,94.94
2023-05-22T06:40:20.733Z,97.5
2023-05-22T06:41:24.021Z,92.38
2023-05-22T06:42:27.294Z,92.38
2023-05-22T06:43:30.567Z,102.62
2023-05-22T06:44:33.864Z,107.74
2023-05-22T06:45:37.161Z,102.62
2023-05-22T06:46:40.466Z,105.18
2023-05-22T06:47:43.832Z,71.9
2023-05-22T06:49:50.436Z,110.3
2023-05-22T06:50:52.709Z,97.5
2023-05-22T06:51:55.971Z,123.1
2023-05-22T06:52:59.341Z,138.46
2023-05-22T06:54:02.582Z,105.18
2023-05-22T06:55:05.873Z,105.18
2023-05-22T06:56:09.158Z,123.1
2023-05-22T06:57:12.520Z,125.66
2023-05-22T06:58:15.736Z,158.94
2023-05-22T06:59:19.062Z,158.94
2023-05-22T07:00:22.317Z,143.58
2023-05-22T07:01:25.606Z,135.9
2023-05-22T07:02:28.902Z,194.78
2023-05-22T07:03:32.185Z,207.58
2023-05-22T07:04:34.512Z,194.78
2023-05-22T07:05:37.779Z,230.62
2023-05-22T07:06:41.137Z,176.86
2023-05-22T07:07:44.360Z,187.1
2023-05-22T07:08:47.672Z,176.86
2023-05-22T07:09:50.992Z,207.58
2023-05-22T07:10:54.248Z,146.14
2023-05-22T07:11:57.553Z,123.1
2023-05-22T07:13:00.833Z,102.62
2023-05-22T07:14:04.125Z,84.7
2023-05-22T07:15:07.687Z,107.74
2023-05-22T07:16:10.992Z,110.3
2023-05-22T07:17:14.187Z,110.3
2023-05-22T07:18:16.590Z,94.94
2023-05-22T07:19:19.778Z,84.7
2023-05-22T07:20:23.226Z,120.54
2023-05-22T07:21:26.389Z,112.86
2023-05-22T07:22:29.662Z,102.62
2023-05-22T07:23:33.147Z,105.18
2023-05-22T07:24:36.259Z,79.58
2023-05-22T07:25:39.604Z,94.94
2023-05-22T07:26:42.845Z,164.06
2023-05-22T07:27:46.178Z,-199.46
2023-05-22T07:28:49.537Z,-289.06
2023-05-22T07:29:52.791Z,322.78
2023-05-22T07:30:56.043Z,276.7
2023-05-22T07:31:58.302Z,248.54
2023-05-22T07:33:01.611Z,-314.66
2023-05-22T07:34:04.902Z,220.38
2023-05-22T07:35:08.174Z,240.86
2023-05-22T07:36:11.467Z,192.22
2023-05-22T07:37:14.790Z,220.38
2023-05-22T07:38:18.244Z,187.1
2023-05-22T07:39:21.522Z,248.54
2023-05-22T07:40:24.699Z,269.02
2023-05-22T07:41:27.931Z,261.34
2023-05-22T07:42:31.210Z,169.18
2023-05-22T07:43:34.583Z,133.34
2023-05-22T07:44:37.806Z,143.58
2023-05-22T07:45:40.388Z,181.98
2023-05-22T07:46:43.494Z,194.78
2023-05-22T07:47:46.859Z,243.42
2023-05-22T07:48:49.996Z,148.7
2023-05-22T07:49:53.444Z,128.22
2023-05-22T07:50:56.799Z,256.22
2023-05-22T07:51:59.854Z,176.86
2023-05-22T07:53:03.385Z,117.98
2023-05-22T07:54:06.582Z,263.9
2023-05-22T07:56:13.081Z,0
2023-05-22T07:57:16.614Z,-309.54
2023-05-22T07:58:19.816Z,-273.7
2023-05-22T07:59:22.064Z,284.38
2023-05-22T08:00:25.221Z,256.22
2023-05-22T08:01:28.517Z,-217.38
2023-05-22T08:03:35.285Z,0
2023-05-22T08:04:38.390Z,-230.18
2023-05-22T08:05:41.725Z,-94.5
2023-05-22T08:06:44.984Z,-271.14
2023-05-22T08:07:48.351Z,317.66
2023-05-22T08:08:51.576Z,-245.54
2023-05-22T08:09:54.858Z,299.74
2023-05-22T08:10:58.165Z,271.58
2023-05-22T08:12:01.439Z,205.02
2023-05-22T08:13:03.739Z,266.46
2023-05-22T08:14:07.164Z,233.18
2023-05-22T08:15:10.382Z,261.34
2023-05-22T08:16:13.724Z,263.9
2023-05-22T08:17:17.118Z,276.7
2023-05-22T08:18:20.328Z,-286.5
2023-05-22T08:19:23.525Z,-296.74
2023-05-22T08:20:26.840Z,-324.9
2023-05-22T08:21:30.128Z,-40.74
2023-05-22T08:22:33.563Z,-202.02
2023-05-22T08:23:36.748Z,-202.02
2023-05-22T08:24:40.079Z,0.23
2023-05-22T08:25:43.349Z,33.51
2023-05-22T08:26:45.818Z,-33.06
2023-05-22T08:27:48.851Z,-94.5
2023-05-22T08:28:52.171Z,15.59
2023-05-22T08:29:55.487Z,56.55
2023-05-22T08:30:58.876Z,100.07
2023-05-22T08:32:02.064Z,153.83
2023-05-22T08:33:05.421Z,92.39
2023-05-22T08:34:08.791Z,-2.34
2023-05-22T08:35:11.978Z,-104.74
2023-05-22T08:36:15.236Z,-132.9
2023-05-22T08:37:18.627Z,-127.78
2023-05-22T08:38:21.954Z,-58.66
2023-05-22T08:39:25.230Z,-63.78
2023-05-22T08:40:27.393Z,-74.02
2023-05-22T08:41:30.654Z,-89.38
2023-05-22T08:42:33.954Z,-53.54
2023-05-22T08:43:37.243Z,-61.22
2023-05-22T08:44:40.677Z,-122.66
2023-05-22T08:45:44.033Z,-130.34
2023-05-22T08:46:47.178Z,-135.46
2023-05-22T08:47:50.418Z,-217.38
2023-05-22T08:48:53.859Z,-230.18
2023-05-22T08:49:56.978Z,-117.54
2023-05-22T08:51:00.295Z,-171.3
2023-05-22T08:52:03.590Z,-122.66
2023-05-22T08:53:07.014Z,-196.9
2023-05-22T08:54:09.237Z,-153.38
2023-05-22T08:55:12.465Z,-237.86
2023-05-22T08:56:15.906Z,-283.94
2023-05-22T08:57:19.199Z,-163.62
2023-05-22T08:58:22.401Z,-219.94
2023-05-22T08:59:25.857Z,-314.66
2023-05-22T09:00:28.923Z,-230.18
2023-05-22T09:01:32.345Z,-235.3
2023-05-22T09:02:35.628Z,-271.14
2023-05-22T09:03:38.813Z,-291.62
2023-05-22T09:04:42.101Z,-291.62
2023-05-22T09:05:45.385Z,248.54
2023-05-22T09:06:48.694Z,-299.3
2023-05-22T09:07:50.976Z,297.18
2023-05-22T09:08:54.297Z,294.62
2023-05-22T09:09:57.654Z,-278.82
2023-05-22T09:11:00.907Z,-263.46
2023-05-22T09:12:04.160Z,-222.5
2023-05-22T09:13:07.612Z,-312.1
2023-05-22T09:14:10.825Z,-189.22
2023-05-22T09:15:14.054Z,-199.46
2023-05-22T09:16:17.321Z,-250.66
2023-05-22T09:17:20.720Z,-322.34
2023-05-22T09:18:23.936Z,-248.1
2023-05-22T09:19:27.338Z,-250.66
2023-05-22T09:20:30.562Z,-222.5
2023-05-22T09:21:32.811Z,-196.9
2023-05-22T09:22:36.274Z,-194.34
2023-05-22T09:23:39.387Z,-207.14
2023-05-22T09:24:42.706Z,-194.34
2023-05-22T09:25:46.180Z,-222.5
2023-05-22T09:26:49.444Z,-112.43
2023-05-22T09:27:52.548Z,-184.1
2023-05-22T09:28:55.850Z,-120.1
2023-05-22T09:29:59.209Z,-184.1
2023-05-22T09:31:02.453Z,-255.78
2023-05-22T09:32:05.921Z,-209.7
2023-05-22T09:33:09.056Z,-271.14
2023-05-22T09:34:12.493Z,-189.22
2023-05-22T09:35:14.837Z,-242.98
2023-05-22T09:36:18.001Z,-186.66
2023-05-22T09:37:21.208Z,-214.82
2023-05-22T09:38:24.646Z,-186.66
2023-05-22T09:39:27.902Z,-235.3
2023-05-22T09:40:30.200Z,-219.94
2023-05-22T09:41:33.493Z,-255.78
2023-05-22T09:42:36.871Z,-276.26
2023-05-22T09:43:39.976Z,-266.02
2023-05-22T09:44:43.454Z,-258.34
2023-05-22T09:45:46.607Z,-278.82
2023-05-22T09:46:49.988Z,-283.94
2023-05-22T09:47:53.224Z,-291.62
2023-05-22T09:48:56.596Z,-271.14
2023-05-22T09:49:59.731Z,-276.26
2023-05-22T09:51:03.247Z,-266.02
2023-05-22T09:52:06.315Z,-237.86
2023-05-22T09:53:09.756Z,-317.22
2023-05-22T09:54:11.979Z,-276.26
2023-05-22T09:55:15.280Z,-296.74
2023-05-22T09:56:18.677Z,294.62
2023-05-22T09:57:21.787Z,297.18
2023-05-22T09:58:25.195Z,-276.26
2023-05-22T09:59:28.609Z,-191.78
2023-05-22T10:00:31.668Z,-217.38
2023-05-22T10:01:34.993Z,107.75
2023-05-22T10:02:38.273Z,141.03
2023-05-22T10:03:41.538Z,-43.3
2023-05-22T10:04:44.836Z,92.39
2023-05-22T10:05:48.188Z,56.55
2023-05-22T10:06:51.622Z,15.59
2023-05-22T10:07:53.850Z,-10.02
2023-05-22T10:08:57.044Z,10.47
2023-05-22T10:10:00.342Z,-10.02
2023-05-22T10:11:03.674Z,-27.94
2023-05-22T10:12:06.906Z,43.75
2023-05-22T10:13:10.201Z,59.11
2023-05-22T10:14:13.593Z,-15.14
2023-05-22T10:15:16.796Z,13.03
2023-05-22T10:16:20.286Z,-10.02
2023-05-22T10:17:23.489Z,-12.58
2023-05-22T10:18:26.655Z,-71.46
2023-05-22T10:19:29.952Z,0.23
2023-05-22T10:20:33.212Z,0
2023-05-22T10:21:35.716Z,-109.86
2023-05-22T10:22:38.891Z,-56.1
2023-05-22T10:23:42.231Z,-71.46
2023-05-22T10:24:45.404Z,61.67
2023-05-22T10:25:48.711Z,36.07
2023-05-22T10:26:52.144Z,23.27
2023-05-22T10:27:55.461Z,100.07
2023-05-22T10:28:58.587Z,15.59
2023-05-22T10:30:01.949Z,25.83
2023-05-22T10:31:05.272Z,74.47
2023-05-22T10:32:08.808Z,33.51
2023-05-22T10:33:12.227Z,-10.02
2023-05-22T10:34:15.383Z,71.91
2023-05-22T10:35:17.691Z,61.67
2023-05-22T10:36:21.008Z,36.07
2023-05-22T10:37:24.441Z,74.47
2023-05-22T10:38:27.766Z,56.55
2023-05-22T10:39:30.864Z,-4.9
2023-05-22T10:40:36.272Z,-45.86
2023-05-22T10:41:37.651Z,-10.02
2023-05-22T10:42:40.856Z,-10.02
2023-05-22T10:43:44.115Z,-4.9
2023-05-22T10:44:47.505Z,-71.46
2023-05-22T10:45:50.621Z,-99.62
2023-05-22T10:46:54.098Z,-112.42
2023-05-22T10:47:57.228Z,-150.82
2023-05-22T10:48:59.545Z,-97.06
2023-05-22T10:50:02.794Z,-112.42
2023-05-22T10:51:06.072Z,-102.18
2023-05-22T10:52:09.395Z,-94.5
2023-05-22T10:53:12.669Z,-81.7
2023-05-22T10:54:15.946Z,-86.82
2023-05-22T10:55:19.252Z,-155.94
2023-05-22T10:56:22.551Z,-94.5
2023-05-22T10:57:25.857Z,-199.46
2023-05-22T10:58:29.128Z,-245.54
2023-05-22T10:59:32.576Z,-150.82
2023-05-22T11:00:35.767Z,-178.98
2023-05-22T11:01:39.070Z,-120.1
2023-05-22T11:02:41.451Z,-84.26
2023-05-22T11:03:44.608Z,-17.7
2023-05-22T11:04:47.985Z,-15.14
2023-05-22T11:05:51.445Z,-12.58
2023-05-22T11:06:54.483Z,-4.9
2023-05-22T11:07:57.966Z,-22.82
2023-05-22T11:09:01.074Z,-4.9
2023-05-22T11:10:04.498Z,-22.82
2023-05-22T11:11:07.863Z,-35.62
2023-05-22T11:12:10.931Z,56.55
2023-05-22T11:13:14.391Z,117.99
2023-05-22T11:14:17.697Z,92.39
2023-05-22T11:15:20.898Z,64.23
2023-05-22T11:16:23.112Z,69.35
2023-05-22T11:17:26.434Z,94.95
2023-05-22T11:18:29.888Z,92.39
2023-05-22T11:19:32.991Z,46.31
2023-05-22T11:20:36.387Z,0.23
2023-05-22T11:21:39.609Z,-143.14
2023-05-22T11:22:42.885Z,-184.1
2023-05-22T11:23:46.277Z,-237.86
2023-05-22T11:24:49.654Z,-235.3
2023-05-22T11:25:52.889Z,-273.7
2023-05-22T11:26:56.261Z,-255.78
2023-05-22T11:27:59.462Z,-102.18
2023-05-22T11:29:02.634Z,174.31
2023-05-22T11:30:04.937Z,143.59
2023-05-22T11:31:08.254Z,289.51
2023-05-22T11:32:11.521Z,-173.85
2023-05-22T11:33:14.803Z,-291.61
2023-05-22T11:34:18.104Z,-214.81
2023-05-22T11:35:21.395Z,-199.45
2023-05-22T11:36:24.700Z,-76.57
2023-05-22T11:37:27.982Z,-271.13
2023-05-22T11:38:31.270Z,253.67
2023-05-22T11:39:34.567Z,263.91
2023-05-22T11:40:37.847Z,-304.41
2023-05-22T11:41:41.147Z,266.47
2023-05-22T11:42:44.444Z,-291.61
2023-05-22T11:43:46.739Z,0
2023-05-22T11:44:50.035Z,0
2023-05-22T11:45:53.325Z,304.87
2023-05-22T11:46:56.622Z,0
2023-05-22T11:47:59.919Z,289.51
2023-05-22T11:49:03.222Z,230.63
2023-05-22T11:50:06.623Z,251.11
2023-05-22T11:51:09.903Z,233.19
2023-05-22T11:52:13.202Z,202.47
2023-05-22T11:53:16.505Z,225.51
2023-05-22T11:54:19.784Z,230.63
2023-05-22T11:55:23.077Z,258.79
2023-05-22T11:56:26.374Z,215.27
2023-05-22T11:57:29.773Z,169.19
2023-05-22T11:58:33.076Z,41.35
2023-05-22T11:59:36.353Z,130.79
2023-05-22T12:00:39.657Z,120.55
2023-05-22T12:01:42.948Z,117.99
2023-05-22T12:02:46.244Z,130.79
2023-05-22T12:03:49.520Z,74.47
2023-05-22T12:04:52.815Z,89.83
2023-05-22T12:05:56.119Z,97.51
2023-05-22T12:06:59.412Z,43.75
2023-05-22T12:08:02.705Z,18.15
2023-05-22T12:09:05.982Z,53.99
2023-05-22T12:10:09.461Z,10.47
2023-05-22T12:11:11.771Z,18.15
2023-05-22T12:12:15.074Z,-25.38
2023-05-22T12:13:18.348Z,-10.02
2023-05-22T12:14:21.660Z,-71.46
2023-05-22T12:15:24.947Z,-71.46
2023-05-22T12:16:28.228Z,-2.34
2023-05-22T12:17:31.527Z,-7.46
2023-05-22T12:18:34.829Z,18.15
2023-05-22T12:19:38.118Z,-7.46
2023-05-22T12:20:41.395Z,-7.46
2023-05-22T12:21:44.686Z,-33.06
2023-05-22T12:22:47.985Z,-125.22
2023-05-22T12:23:51.277Z,-173.86
2023-05-22T12:24:53.577Z,-186.66
2023-05-22T12:25:56.875Z,-230.18
2023-05-22T12:27:00.174Z,-232.74
2023-05-22T12:28:03.472Z,-255.78
2023-05-22T12:29:06.737Z,-263.46
2023-05-22T12:30:10.030Z,-304.42
2023-05-22T12:31:13.341Z,-214.82
2023-05-22T12:32:16.634Z,-260.9
2023-05-22T12:33:19.907Z,-306.98
2023-05-22T12:34:23.213Z,-276.26
2023-05-22T12:35:26.507Z,-263.46
2023-05-22T12:36:29.831Z,-283.94
2023-05-22T12:37:33.077Z,-294.18
2023-05-22T12:38:35.386Z,-309.54
2023-05-22T12:39:38.677Z,-324.9
2023-05-22T12:40:41.990Z,-319.78
2023-05-22T12:41:45.270Z,320.22
2023-05-22T12:42:48.568Z,-324.9
2023-05-22T12:43:51.846Z,-276.26
2023-05-22T12:44:55.158Z,-314.66
2023-05-22T12:45:58.448Z,-301.86
2023-05-22T12:47:01.744Z,-304.42
2023-05-22T12:48:05.022Z,-327.46
2023-05-22T12:49:08.313Z,307.42
2023-05-22T12:50:11.613Z,320.22
2023-05-22T12:51:14.894Z,294.62
2023-05-22T12:52:17.208Z,289.5
2023-05-22T12:53:20.499Z,289.5
2023-05-22T12:54:23.796Z,281.82
2023-05-22T12:55:27.102Z,276.7
2023-05-22T12:56:30.370Z,271.58
2023-05-22T12:57:33.657Z,271.58
2023-05-22T12:58:36.969Z,243.42
2023-05-22T12:59:40.255Z,248.54
2023-05-22T13:00:43.541Z,243.42
2023-05-22T13:01:46.874Z,253.66
2023-05-22T13:02:50.133Z,243.42
2023-05-22T13:03:53.407Z,243.42
2023-05-22T13:04:56.709Z,245.98
2023-05-22T13:05:59.010Z,256.22
2023-05-22T13:07:02.422Z,235.74
2023-05-22T13:08:05.607Z,230.62
2023-05-22T13:09:08.883Z,274.14
2023-05-22T13:10:12.192Z,-312.1
2023-05-22T13:11:15.483Z,302.3
2023-05-22T13:12:17.784Z,286.94
2023-05-22T13:13:21.093Z,261.34
2023-05-22T13:14:24.364Z,251.1
2023-05-22T13:15:27.667Z,243.42
2023-05-22T13:16:30.955Z,248.54
2023-05-22T13:17:34.246Z,240.86
2023-05-22T13:18:37.533Z,240.86
2023-05-22T13:19:40.817Z,240.86